Time;durP1;ratioP1;P1;durP2;ratioP2;P2;SDS_P1;SDS_P2;PMS_P1;PMS_P2;Temp;Humidity;BMP_temperature;BMP_pressure;BME280_temperature;BME280_humidity;BME280_pressure;Samples;Min_cycle;Max_cycle;Signal;HPM_P1;HPM_P2
2023/08/26 00:01:59;;;;;;;44.10;42.50;;;22.30;99.90;;;;;;5028319;28;20820;-66
2023/08/26 00:04:25;;;;;;;40.30;38.85;;;22.20;99.90;;;;;;5034261;28;20223;-66
2023/08/26 00:06:52;;;;;;;49.57;47.80;;;22.30;99.90;;;;;;5039145;28;20232;-63
2023/08/26 00:09:19;;;;;;;44.33;42.70;;;22.30;99.90;;;;;;5031053;28;20215;-64
2023/08/26 00:11:47;;;;;;;43.33;41.80;;;22.30;99.90;;;;;;5030908;28;20208;-63
2023/08/26 00:14:14;;;;;;;37.67;36.33;;;22.30;99.90;;;;;;5029256;28;20233;-63
2023/08/26 00:16:41;;;;;;;50.03;48.23;;;22.40;99.90;;;;;;5029669;28;20677;-64
2023/08/26 00:19:08;;;;;;;46.10;44.47;;;22.40;99.90;;;;;;5028778;28;20232;-65
2023/08/26 00:21:35;;;;;;;42.37;40.87;;;22.40;99.90;;;;;;5029642;28;20678;-64
2023/08/26 00:24:01;;;;;;;34.87;33.63;;;22.40;99.90;;;;;;5029418;28;20217;-65
2023/08/26 00:26:28;;;;;;;45.17;43.57;;;22.40;99.90;;;;;;5029133;28;20209;-66
2023/08/26 00:28:56;;;;;;;37.27;35.90;;;22.40;99.90;;;;;;5030427;28;20213;-64
2023/08/26 00:31:23;;;;;;;43.40;41.87;;;22.50;99.90;;;;;;5032619;28;20208;-63
2023/08/26 00:33:50;;;;;;;38.73;37.37;;;22.50;99.90;;;;;;5032797;28;20717;-64
2023/08/26 00:36:17;;;;;;;48.73;47.03;;;22.40;99.90;;;;;;5032770;28;20596;-65
2023/08/26 00:38:43;;;;;;;43.15;41.63;;;22.40;99.90;;;;;;5033147;28;20204;-64
2023/08/26 00:41:10;;;;;;;45.83;44.23;;;22.30;99.90;;;;;;5031592;28;20207;-64
2023/08/26 00:43:37;;;;;;;37.37;36.03;;;22.30;99.90;;;;;;5034001;28;20205;-65
2023/08/26 00:46:05;;;;;;;39.63;38.20;;;22.20;99.90;;;;;;5034524;28;20208;-64
2023/08/26 00:48:32;;;;;;;34.37;33.17;;;22.30;99.90;;;;;;5034056;28;20579;-65
2023/08/26 00:50:59;;;;;;;31.47;30.33;;;22.20;99.90;;;;;;5033242;28;20234;-65
2023/08/26 00:53:26;;;;;;;39.30;37.93;;;22.20;99.90;;;;;;5033173;28;20229;-65
2023/08/26 00:55:53;;;;;;;25.20;24.33;;;22.20;99.90;;;;;;5032597;28;20761;-66
2023/08/26 00:58:21;;;;;;;33.43;32.27;;;22.10;99.90;;;;;;5035780;28;20213;-68
2023/08/26 01:00:48;;;;;;;32.73;31.57;;;22.10;99.90;;;;;;5047064;28;20295;-64
2023/08/26 01:03:17;;;;;;;28.27;27.27;;;22.10;99.90;;;;;;5033994;28;20204;-66
2023/08/26 01:05:43;;;;;;;33.90;32.73;;;22.10;99.90;;;;;;5033500;28;20232;-64
2023/08/26 01:08:10;;;;;;;29.83;28.73;;;22.10;99.90;;;;;;5032842;28;20679;-65
2023/08/26 01:10:45;;;;;;;31.23;30.07;;;22.10;99.90;;;;;;5033282;28;20205;-66
2023/08/26 01:13:14;;;;;;;24.23;23.37;;;22.10;99.90;;;;;;5032182;28;20220;-65
2023/08/26 01:15:45;;;;;;;22.50;21.73;;;22.10;99.90;;;;;;5032403;28;20629;-64
2023/08/26 01:18:13;;;;;;;21.03;20.30;;;22.00;99.90;;;;;;5032160;28;20678;-63
2023/08/26 01:20:43;;;;;;;23.20;22.40;;;22.00;99.90;;;;;;5032170;28;20236;-64
2023/08/26 01:23:16;;;;;;;19.17;18.50;;;22.00;99.90;;;;;;5029324;28;20204;-64
2023/08/26 01:25:44;;;;;;;17.73;17.08;;;22.00;99.90;;;;;;5032392;28;20224;-65
2023/08/26 01:28:11;;;;;;;16.70;16.10;;;22.00;99.90;;;;;;5032262;28;20201;-67
2023/08/26 01:30:38;;;;;;;17.50;16.90;;;22.00;99.90;;;;;;5036084;28;20249;-66
2023/08/26 01:33:11;;;;;;;16.73;16.13;;;22.00;99.90;;;;;;5038240;28;20251;-66
2023/08/26 01:35:42;;;;;;;18.73;18.03;;;22.10;99.90;;;;;;5032379;28;20243;-66
2023/08/26 01:38:10;;;;;;;18.53;17.83;;;22.10;99.90;;;;;;5031973;28;20216;-65
2023/08/26 01:40:39;;;;;;;18.13;17.50;;;22.20;99.90;;;;;;5031055;28;20208;-66
2023/08/26 01:43:08;;;;;;;17.37;16.70;;;22.20;99.90;;;;;;5032256;28;20259;-65
2023/08/26 01:45:35;;;;;;;18.20;17.57;;;22.10;99.90;;;;;;5032288;28;20235;-65
2023/08/26 01:48:02;;;;;;;16.43;15.83;;;22.10;99.90;;;;;;5032845;28;20208;-65
2023/08/26 01:50:30;;;;;;;16.30;15.70;;;22.10;99.90;;;;;;5031831;28;20205;-66
2023/08/26 01:52:58;;;;;;;16.43;15.83;;;22.20;99.90;;;;;;5032661;28;20655;-64
2023/08/26 01:55:25;;;;;;;17.15;16.55;;;22.20;99.90;;;;;;5032062;28;20233;-64
2023/08/26 01:57:52;;;;;;;17.57;16.97;;;22.20;99.90;;;;;;5032630;28;20666;-63
2023/08/26 02:00:20;;;;;;;17.33;16.73;;;22.20;99.90;;;;;;5032076;28;20209;-65
2023/08/26 02:02:47;;;;;;;17.13;16.53;;;22.20;99.90;;;;;;5031876;28;20212;-64
2023/08/26 02:05:14;;;;;;;17.40;16.80;;;22.10;99.90;;;;;;5031520;28;20234;-64
2023/08/26 02:07:42;;;;;;;16.93;16.33;;;22.20;99.90;;;;;;5037095;28;20561;-65
2023/08/26 02:10:10;;;;;;;17.20;16.60;;;22.20;99.90;;;;;;5031120;28;20695;-66
2023/08/26 02:12:36;;;;;;;18.00;17.40;;;22.20;99.90;;;;;;5034399;28;20268;-64
2023/08/26 02:15:04;;;;;;;18.17;17.52;;;22.20;99.90;;;;;;5032453;28;20654;-66
2023/08/26 02:17:33;;;;;;;17.47;16.87;;;22.20;99.90;;;;;;5031119;28;20211;-64
2023/08/26 02:20:00;;;;;;;17.30;16.67;;;22.10;99.90;;;;;;5034590;28;20554;-67
2023/08/26 02:22:27;;;;;;;17.33;16.73;;;22.10;99.90;;;;;;5030958;28;20235;-65
2023/08/26 02:24:54;;;;;;;16.97;16.37;;;22.10;99.90;;;;;;5031067;28;20323;-64
2023/08/26 02:27:21;;;;;;;17.97;17.27;;;22.10;99.90;;;;;;5031301;28;20581;-66
2023/08/26 02:29:47;;;;;;;16.97;16.37;;;22.10;99.90;;;;;;5030875;28;20208;-64
2023/08/26 02:32:14;;;;;;;16.47;15.87;;;22.00;99.90;;;;;;5030858;28;20216;-64
2023/08/26 02:34:42;;;;;;;16.30;15.70;;;21.90;99.90;;;;;;5031998;28;20231;-64
2023/08/26 02:37:09;;;;;;;16.80;16.20;;;21.90;99.90;;;;;;5032482;28;20301;-65
2023/08/26 02:39:36;;;;;;;16.10;15.50;;;21.90;99.90;;;;;;5031963;28;20230;-66
2023/08/26 02:42:03;;;;;;;15.83;15.23;;;21.90;99.90;;;;;;5032393;28;20299;-66
2023/08/26 02:44:30;;;;;;;16.70;16.10;;;21.90;99.90;;;;;;5032168;28;20611;-68
2023/08/26 02:46:56;;;;;;;16.27;15.67;;;21.90;99.90;;;;;;5031444;28;20211;-65
2023/08/26 02:49:23;;;;;;;16.90;16.30;;;21.90;99.90;;;;;;5030639;28;20303;-66
2023/08/26 02:51:51;;;;;;;16.13;15.57;;;21.90;99.90;;;;;;5029976;28;20219;-66
2023/08/26 02:54:18;;;;;;;15.77;15.27;;;22.00;99.90;;;;;;5030827;28;20232;-66
2023/08/26 02:56:45;;;;;;;16.30;15.70;;;21.90;99.90;;;;;;5048071;28;20279;-64
2023/08/26 02:59:12;;;;;;;14.93;14.43;;;22.00;99.90;;;;;;5031738;28;20212;-65
2023/08/26 03:01:40;;;;;;;15.37;14.87;;;21.90;99.90;;;;;;5031282;28;20326;-65
2023/08/26 03:04:07;;;;;;;15.57;15.07;;;21.90;99.90;;;;;;5030265;28;20228;-66
2023/08/26 03:06:33;;;;;;;15.68;15.18;;;21.90;99.90;;;;;;5030767;28;20215;-64
2023/08/26 03:09:02;;;;;;;15.33;14.83;;;21.90;99.90;;;;;;5030083;28;20287;-66
2023/08/26 03:11:29;;;;;;;15.23;14.73;;;21.90;99.90;;;;;;5028657;28;20278;-65
2023/08/26 03:13:56;;;;;;;15.50;15.00;;;21.90;99.90;;;;;;5031204;28;20608;-63
2023/08/26 03:16:22;;;;;;;14.93;14.43;;;21.90;99.90;;;;;;5031284;28;20204;-68
2023/08/26 03:18:49;;;;;;;16.20;15.60;;;21.90;99.90;;;;;;5035736;28;20212;-67
2023/08/26 03:21:16;;;;;;;17.03;16.43;;;21.90;99.90;;;;;;5034341;28;20204;-65
2023/08/26 03:23:43;;;;;;;15.87;15.30;;;21.80;99.90;;;;;;5031298;28;20255;-66
2023/08/26 03:26:11;;;;;;;16.30;15.63;;;21.80;99.90;;;;;;5031218;28;20196;-65
2023/08/26 03:28:38;;;;;;;17.13;16.53;;;21.80;99.90;;;;;;5030054;28;20208;-64
2023/08/26 03:31:05;;;;;;;16.27;15.68;;;21.80;99.90;;;;;;5028961;28;20706;-65
2023/08/26 03:33:32;;;;;;;12.23;11.73;;;21.90;99.90;;;;;;5029662;28;20208;-65
2023/08/26 03:35:59;;;;;;;13.67;13.17;;;21.90;99.90;;;;;;5049443;22;20263;-64
2023/08/26 03:38:26;;;;;;;16.70;16.10;;;22.00;99.90;;;;;;5028801;28;20295;-64
2023/08/26 03:40:52;;;;;;;18.77;18.13;;;22.00;99.90;;;;;;5036284;28;20209;-65
2023/08/26 03:43:21;;;;;;;17.80;17.20;;;21.90;99.90;;;;;;5038350;28;20257;-66
2023/08/26 03:45:48;;;;;;;17.70;17.03;;;21.90;99.90;;;;;;5029619;28;20227;-65
2023/08/26 03:48:14;;;;;;;19.37;18.67;;;21.90;99.90;;;;;;5028984;28;20278;-66
2023/08/26 03:50:50;;;;;;;13.05;12.55;;;21.90;99.90;;;;;;5028090;28;20207;-64
2023/08/26 03:53:17;;;;;;;16.23;15.63;;;21.90;99.90;;;;;;5028972;28;20199;-65
2023/08/26 03:55:44;;;;;;;15.50;15.00;;;21.80;99.90;;;;;;5028068;28;20729;-64
2023/08/26 03:58:11;;;;;;;16.50;15.90;;;21.80;99.90;;;;;;5029111;28;20299;-64
2023/08/26 04:00:39;;;;;;;16.53;15.93;;;21.80;99.90;;;;;;5029940;28;20201;-63
2023/08/26 04:03:06;;;;;;;17.27;16.57;;;21.70;99.90;;;;;;5029908;28;20242;-64
2023/08/26 04:05:33;;;;;;;17.93;17.33;;;21.70;99.90;;;;;;5034727;28;20231;-64
2023/08/26 04:08:00;;;;;;;16.80;16.20;;;21.70;99.90;;;;;;5033873;28;21049;-64
2023/08/26 04:10:27;;;;;;;16.27;15.67;;;21.70;99.90;;;;;;5033308;28;20214;-64
2023/08/26 04:12:54;;;;;;;16.80;16.20;;;21.60;99.90;;;;;;5033539;28;20282;-65
2023/08/26 04:15:21;;;;;;;16.93;16.33;;;21.60;99.90;;;;;;5033390;28;20229;-65
2023/08/26 04:17:49;;;;;;;16.90;16.30;;;21.60;99.90;;;;;;5033371;28;20488;-65
2023/08/26 04:20:16;;;;;;;16.70;16.10;;;21.60;99.90;;;;;;5032639;28;20212;-63
2023/08/26 04:22:43;;;;;;;16.80;16.20;;;21.60;99.90;;;;;;5033663;28;20201;-65
2023/08/26 04:25:10;;;;;;;15.80;15.20;;;21.50;99.90;;;;;;5033735;28;20236;-64
2023/08/26 04:27:37;;;;;;;16.17;15.57;;;21.50;99.90;;;;;;5033155;28;20217;-63
2023/08/26 04:30:05;;;;;;;15.13;14.60;;;21.30;99.90;;;;;;5033038;28;20205;-63
2023/08/26 04:32:32;;;;;;;16.43;15.83;;;21.30;99.90;;;;;;5033031;28;20204;-63
2023/08/26 04:35:01;;;;;;;16.43;15.83;;;21.30;99.90;;;;;;5033002;28;20225;-63
2023/08/26 04:37:28;;;;;;;16.13;15.53;;;21.30;99.90;;;;;;5033121;28;20211;-64
2023/08/26 04:39:55;;;;;;;15.13;14.57;;;21.30;99.90;;;;;;5032347;28;20209;-64
2023/08/26 04:42:21;;;;;;;15.40;14.83;;;21.30;99.90;;;;;;5033598;28;20716;-64
2023/08/26 04:44:48;;;;;;;15.67;15.17;;;21.20;99.90;;;;;;5033288;28;20252;-64
2023/08/26 04:47:15;;;;;;;15.37;14.77;;;21.10;99.90;;;;;;5033046;28;20200;-65
2023/08/26 04:49:42;;;;;;;15.60;15.07;;;21.10;99.90;;;;;;5032842;28;20236;-64
2023/08/26 04:52:11;;;;;;;17.93;17.23;;;21.10;99.90;;;;;;5033436;28;20205;-65
2023/08/26 04:54:38;;;;;;;15.60;15.07;;;20.90;99.90;;;;;;5032618;28;20233;-63
2023/08/26 04:57:05;;;;;;;14.63;14.13;;;21.00;99.90;;;;;;5033242;28;20209;-63
2023/08/26 04:59:32;;;;;;;15.23;14.73;;;21.00;99.90;;;;;;5032689;28;20641;-64
2023/08/26 05:01:59;;;;;;;14.50;14.00;;;21.00;99.90;;;;;;5032924;28;20211;-64
2023/08/26 05:04:26;;;;;;;15.00;14.40;;;20.90;99.90;;;;;;5032769;28;20308;-65
2023/08/26 05:06:54;;;;;;;15.10;14.60;;;20.80;99.90;;;;;;5033222;28;20209;-62
2023/08/26 05:09:22;;;;;;;16.30;15.70;;;20.80;99.90;;;;;;5032321;28;20204;-62
2023/08/26 05:11:49;;;;;;;15.97;15.37;;;20.80;99.90;;;;;;5044157;28;20223;-65
2023/08/26 05:14:15;;;;;;;16.90;16.30;;;20.90;99.90;;;;;;5042950;28;20221;-64
2023/08/26 05:16:42;;;;;;;18.30;17.60;;;20.90;99.90;;;;;;5034363;28;20235;-64
2023/08/26 05:19:09;;;;;;;16.53;15.87;;;20.90;99.90;;;;;;5032941;28;20208;-62
2023/08/26 05:21:36;;;;;;;16.27;15.67;;;20.90;99.90;;;;;;5033825;28;20208;-63
2023/08/26 05:24:03;;;;;;;16.33;15.73;;;20.80;99.90;;;;;;5033588;28;20199;-64
2023/08/26 05:26:31;;;;;;;18.20;17.50;;;20.80;99.90;;;;;;5033892;28;20419;-64
2023/08/26 05:28:58;;;;;;;16.73;16.13;;;20.80;99.90;;;;;;5033398;28;20209;-63
2023/08/26 05:31:25;;;;;;;15.70;15.10;;;20.80;99.90;;;;;;5032802;28;20211;-63
2023/08/26 05:33:52;;;;;;;16.07;15.47;;;20.90;99.90;;;;;;5032903;28;20619;-63
2023/08/26 05:36:19;;;;;;;15.33;14.83;;;20.90;99.90;;;;;;5032736;28;20228;-65
2023/08/26 05:38:45;;;;;;;16.20;15.60;;;20.80;99.90;;;;;;5033087;28;20563;-64
2023/08/26 05:41:13;;;;;;;15.67;15.07;;;20.80;99.90;;;;;;5032517;28;20431;-64
2023/08/26 05:43:42;;;;;;;17.23;16.63;;;20.80;99.90;;;;;;5032915;28;20575;-64
2023/08/26 05:46:08;;;;;;;17.37;16.67;;;20.90;99.90;;;;;;5033254;28;20273;-64
2023/08/26 05:48:35;;;;;;;17.38;16.77;;;21.00;99.90;;;;;;5033252;28;20208;-63
2023/08/26 05:51:02;;;;;;;17.47;16.87;;;21.00;99.90;;;;;;5031666;28;20209;-63
2023/08/26 05:53:29;;;;;;;17.30;16.70;;;21.00;99.90;;;;;;5031617;28;20662;-66
2023/08/26 05:55:56;;;;;;;15.13;14.63;;;21.10;99.90;;;;;;5032218;28;20767;-63
2023/08/26 05:58:23;;;;;;;15.40;14.90;;;21.10;99.90;;;;;;5032041;28;20488;-63
2023/08/26 06:00:51;;;;;;;14.67;14.17;;;21.20;99.90;;;;;;5027082;28;20229;-65
2023/08/26 06:03:18;;;;;;;15.80;15.30;;;21.20;99.90;;;;;;5010973;28;20616;-64
2023/08/26 06:05:45;;;;;;;16.07;15.47;;;21.20;99.90;;;;;;5011944;28;20289;-63
2023/08/26 06:08:11;;;;;;;16.17;15.57;;;21.30;99.90;;;;;;5012586;28;20792;-63
2023/08/26 06:10:38;;;;;;;15.03;14.50;;;21.30;99.90;;;;;;5012217;28;20208;-64
2023/08/26 06:13:05;;;;;;;16.67;16.07;;;21.20;99.90;;;;;;5012028;28;20241;-64
2023/08/26 06:15:32;;;;;;;13.40;12.93;;;21.20;99.90;;;;;;5011843;28;20611;-64
2023/08/26 06:18:01;;;;;;;15.90;15.30;;;21.20;99.90;;;;;;5011567;28;20206;-64
2023/08/26 06:20:29;;;;;;;12.63;12.23;;;21.20;99.90;;;;;;5010091;28;20205;-64
2023/08/26 06:22:56;;;;;;;12.47;12.07;;;21.20;99.90;;;;;;5012164;28;20244;-63
2023/08/26 06:25:23;;;;;;;12.77;12.37;;;21.30;99.90;;;;;;5012356;28;20232;-63
2023/08/26 06:27:49;;;;;;;13.20;12.70;;;21.30;99.90;;;;;;5011615;28;20292;-64
2023/08/26 06:30:16;;;;;;;13.43;12.93;;;21.30;99.90;;;;;;5011692;28;20216;-63
2023/08/26 06:32:44;;;;;;;13.23;12.73;;;21.30;99.90;;;;;;5011833;28;20205;-64
2023/08/26 06:35:12;;;;;;;13.30;12.70;;;21.20;99.90;;;;;;5009261;28;20334;-62
2023/08/26 06:37:39;;;;;;;13.37;12.87;;;21.20;99.90;;;;;;5001342;28;20208;-64
2023/08/26 06:40:07;;;;;;;13.70;13.20;;;21.20;99.90;;;;;;5008230;28;20239;-64
2023/08/26 06:42:33;;;;;;;15.67;15.17;;;21.10;99.90;;;;;;5014765;28;20725;-65
2023/08/26 06:45:00;;;;;;;15.97;15.37;;;21.10;99.90;;;;;;5006651;28;20321;-63
2023/08/26 06:47:27;;;;;;;14.00;13.50;;;21.10;99.90;;;;;;5001756;28;20205;-63
2023/08/26 06:49:54;;;;;;;14.63;14.13;;;21.00;99.90;;;;;;5007437;28;20761;-64
2023/08/26 06:52:23;;;;;;;16.37;15.77;;;21.00;99.90;;;;;;5006646;28;20213;-64
2023/08/26 06:54:49;;;;;;;15.43;14.83;;;20.90;99.90;;;;;;5002444;28;20318;-63
2023/08/26 06:57:22;;;;;;;16.07;15.53;;;21.00;99.90;;;;;;5006544;28;20621;-63
2023/08/26 06:59:49;;;;;;;14.00;13.50;;;21.00;99.90;;;;;;5005252;28;20277;-64
2023/08/26 07:02:18;;;;;;;11.50;11.10;;;21.20;99.90;;;;;;5003097;28;20208;-63
2023/08/26 07:04:45;;;;;;;12.30;11.90;;;21.20;99.90;;;;;;5005177;28;20254;-63
2023/08/26 07:07:13;;;;;;;12.43;12.03;;;21.20;99.90;;;;;;5009163;28;20238;-63
2023/08/26 07:09:41;;;;;;;11.97;11.57;;;21.20;99.90;;;;;;5008999;28;20201;-63
2023/08/26 07:12:08;;;;;;;13.43;12.93;;;21.20;99.90;;;;;;5011419;28;20711;-65
2023/08/26 07:14:35;;;;;;;13.00;12.50;;;21.10;99.90;;;;;;5005547;28;20264;-63
2023/08/26 07:17:04;;;;;;;13.07;12.67;;;21.10;99.90;;;;;;5010046;28;20590;-63
2023/08/26 07:19:31;;;;;;;13.60;13.10;;;21.20;99.90;;;;;;5011505;28;20284;-65
2023/08/26 07:21:57;;;;;;;13.13;12.63;;;21.30;99.90;;;;;;5011835;28;20201;-64
2023/08/26 07:24:24;;;;;;;13.40;12.90;;;21.40;99.90;;;;;;5010169;28;20710;-64
2023/08/26 07:26:52;;;;;;;12.83;12.23;;;21.40;99.90;;;;;;5009920;28;20579;-65
2023/08/26 07:29:19;;;;;;;11.80;11.40;;;21.50;99.90;;;;;;5011135;28;20209;-64
2023/08/26 07:31:46;;;;;;;11.60;11.10;;;21.60;99.90;;;;;;5008398;28;20265;-64
2023/08/26 07:34:13;;;;;;;10.30;9.90;;;21.70;99.90;;;;;;5007149;28;20289;-65
2023/08/26 07:36:40;;;;;;;12.00;11.53;;;21.70;99.90;;;;;;5001110;28;20224;-64
2023/08/26 07:39:08;;;;;;;10.23;9.83;;;21.60;99.90;;;;;;5008989;28;20209;-64
2023/08/26 07:41:35;;;;;;;10.77;10.37;;;21.70;99.90;;;;;;5002160;28;20212;-65
2023/08/26 07:44:04;;;;;;;12.60;12.20;;;21.90;99.90;;;;;;5003168;28;20216;-64
2023/08/26 07:46:30;;;;;;;11.47;11.07;;;22.10;99.90;;;;;;5000951;28;20299;-64
2023/08/26 07:48:57;;;;;;;12.23;11.83;;;22.30;99.90;;;;;;5006299;28;20216;-64
2023/08/26 07:51:24;;;;;;;14.73;14.23;;;22.50;99.90;;;;;;5006734;28;20570;-64
2023/08/26 07:53:51;;;;;;;13.05;12.65;;;22.70;99.90;;;;;;5007374;28;20656;-65
2023/08/26 07:56:18;;;;;;;14.63;14.13;;;22.70;99.90;;;;;;5016139;28;20594;-65
2023/08/26 07:58:44;;;;;;;15.37;14.77;;;22.70;99.90;;;;;;5008410;28;20209;-63
2023/08/26 08:01:13;;;;;;;15.23;14.63;;;22.50;99.90;;;;;;5009772;28;20205;-64
2023/08/26 08:03:39;;;;;;;14.33;13.83;;;22.30;99.90;;;;;;5011184;28;20213;-65
2023/08/26 08:06:07;;;;;;;13.47;12.97;;;22.20;99.90;;;;;;5001213;28;20217;-65
2023/08/26 08:08:33;;;;;;;13.40;12.80;;;22.30;99.90;;;;;;5003923;28;20312;-66
2023/08/26 08:11:00;;;;;;;13.63;13.13;;;22.40;99.90;;;;;;5001923;28;20223;-66
2023/08/26 08:13:27;;;;;;;13.43;12.93;;;22.60;99.90;;;;;;5007409;28;20197;-63
2023/08/26 08:15:54;;;;;;;13.70;13.20;;;22.60;99.90;;;;;;5006552;28;20227;-65
2023/08/26 08:18:23;;;;;;;14.00;13.50;;;22.60;99.90;;;;;;5003424;28;20564;-65
2023/08/26 08:20:49;;;;;;;13.80;13.30;;;22.70;99.90;;;;;;5004463;28;20219;-64
2023/08/26 08:23:16;;;;;;;12.87;12.47;;;22.70;99.90;;;;;;5014345;28;20205;-65
2023/08/26 08:25:43;;;;;;;13.17;12.73;;;23.00;99.90;;;;;;5018471;28;20225;-65
2023/08/26 08:28:10;;;;;;;13.50;13.00;;;23.10;99.90;;;;;;5018027;28;20233;-63
2023/08/26 08:30:37;;;;;;;13.03;12.60;;;22.90;99.90;;;;;;5016890;28;20205;-64
2023/08/26 08:33:05;;;;;;;14.70;14.03;;;23.00;99.90;;;;;;5011226;28;20582;-64
2023/08/26 08:35:33;;;;;;;13.20;12.70;;;23.00;99.90;;;;;;5008870;28;20694;-65
2023/08/26 08:38:00;;;;;;;14.43;13.93;;;23.00;99.90;;;;;;5014841;28;20319;-64
2023/08/26 08:40:27;;;;;;;13.83;13.33;;;22.60;99.90;;;;;;5011667;28;20249;-65
2023/08/26 08:42:55;;;;;;;14.10;13.60;;;22.60;99.90;;;;;;5011327;28;20202;-64
2023/08/26 08:45:23;;;;;;;14.15;13.65;;;22.70;99.90;;;;;;5008932;28;20783;-65
2023/08/26 08:47:53;;;;;;;13.60;13.10;;;22.80;99.90;;;;;;5010309;28;20213;-62
2023/08/26 08:50:21;;;;;;;13.47;12.97;;;22.80;99.90;;;;;;5016697;28;20497;-64
2023/08/26 08:52:55;;;;;;;13.67;13.17;;;22.80;99.90;;;;;;5020085;28;20760;-64
2023/08/26 08:55:22;;;;;;;13.93;13.43;;;22.90;99.90;;;;;;5013769;28;20259;-62
2023/08/26 08:57:52;;;;;;;12.73;12.33;;;23.20;99.90;;;;;;5009621;28;20232;-65
2023/08/26 09:00:19;;;;;;;12.57;12.17;;;23.30;99.90;;;;;;5011498;28;20276;-66
2023/08/26 09:02:48;;;;;;;13.17;12.67;;;23.50;99.90;;;;;;5016315;28;20269;-62
2023/08/26 09:05:15;;;;;;;13.97;13.47;;;23.40;99.90;;;;;;5025339;28;20312;-63
2023/08/26 09:07:43;;;;;;;13.33;12.83;;;23.40;99.90;;;;;;5025453;28;20727;-63
2023/08/26 09:10:12;;;;;;;14.53;14.03;;;23.60;99.90;;;;;;5028256;28;20276;-64
2023/08/26 09:12:38;;;;;;;14.60;14.10;;;23.90;99.90;;;;;;5029703;28;20204;-63
2023/08/26 09:15:06;;;;;;;15.47;14.97;;;23.80;99.90;;;;;;5014791;28;20230;-64
2023/08/26 09:17:34;;;;;;;15.00;14.50;;;23.50;99.90;;;;;;5014711;28;20237;-64
2023/08/26 09:20:02;;;;;;;13.63;13.13;;;23.50;99.90;;;;;;5014691;28;20209;-64
2023/08/26 09:22:30;;;;;;;15.70;15.10;;;23.60;99.90;;;;;;5016639;28;20201;-67
2023/08/26 09:24:58;;;;;;;13.73;13.23;;;23.60;99.90;;;;;;5013654;28;20256;-63
2023/08/26 09:27:26;;;;;;;13.30;12.87;;;23.60;99.90;;;;;;5013501;28;20197;-65
2023/08/26 09:29:54;;;;;;;13.13;12.73;;;23.60;99.90;;;;;;5013326;28;20284;-66
2023/08/26 09:32:35;;;;;;;13.40;12.90;;;23.80;99.90;;;;;;5014004;28;20209;-63
2023/08/26 09:35:12;;;;;;;13.20;12.70;;;23.90;99.90;;;;;;5041635;22;20234;-66
2023/08/26 09:37:39;;;;;;;13.77;13.27;;;23.90;99.90;;;;;;5031644;28;20315;-65
2023/08/26 09:40:07;;;;;;;15.05;14.55;;;23.80;99.90;;;;;;5031637;28;20296;-66
2023/08/26 09:42:36;;;;;;;14.40;13.90;;;23.70;99.90;;;;;;5032369;28;20701;-66
2023/08/26 09:45:07;;;;;;;12.43;12.03;;;23.50;99.90;;;;;;5031008;28;20228;-67
2023/08/26 09:47:37;;;;;;;11.77;11.33;;;23.40;99.90;;;;;;5033346;28;20205;-67
2023/08/26 09:50:05;;;;;;;14.20;13.70;;;23.20;99.90;;;;;;5032150;28;20209;-67
2023/08/26 09:52:42;;;;;;;11.30;10.90;;;23.00;99.90;;;;;;5033049;28;20204;-68
2023/08/26 09:55:09;;;;;;;12.70;12.30;;;23.10;99.90;;;;;;5032939;28;20239;-66
2023/08/26 09:57:37;;;;;;;13.83;13.33;;;23.20;99.90;;;;;;5032789;28;20232;-66
2023/08/26 10:00:05;;;;;;;13.73;13.23;;;23.20;99.90;;;;;;5035606;28;20207;-66
2023/08/26 10:02:37;;;;;;;13.20;12.70;;;23.10;99.90;;;;;;5032967;28;20732;-66
2023/08/26 10:05:10;;;;;;;13.15;12.65;;;23.20;99.90;;;;;;5033525;28;20246;-66
2023/08/26 10:07:39;;;;;;;12.40;11.90;;;23.10;99.90;;;;;;5033026;28;20696;-66
2023/08/26 10:10:11;;;;;;;12.40;12.00;;;23.00;99.90;;;;;;5032684;28;20211;-66
2023/08/26 10:12:42;;;;;;;12.60;12.10;;;22.90;99.90;;;;;;5032990;28;20204;-67
2023/08/26 10:15:15;;;;;;;12.93;12.53;;;22.80;99.90;;;;;;5033445;28;20252;-67
2023/08/26 10:17:45;;;;;;;13.35;12.85;;;22.70;99.90;;;;;;5033598;28;20239;-66
2023/08/26 10:20:13;;;;;;;13.10;12.67;;;22.70;99.90;;;;;;5036678;28;20209;-67
2023/08/26 10:22:39;;;;;;;12.30;11.90;;;22.80;99.90;;;;;;5035123;28;20573;-67
2023/08/26 10:25:09;;;;;;;13.13;12.70;;;22.90;99.90;;;;;;5034913;28;20234;-67
2023/08/26 10:27:39;;;;;;;12.82;12.27;;;22.80;99.90;;;;;;5034100;28;20201;-64
2023/08/26 10:30:07;;;;;;;12.53;12.03;;;22.70;99.90;;;;;;5031722;28;20205;-67
2023/08/26 10:32:43;;;;;;;13.17;12.67;;;22.60;99.90;;;;;;5032525;28;20283;-66
2023/08/26 10:35:11;;;;;;;13.80;13.30;;;22.50;99.90;;;;;;5032100;28;20331;-66
2023/08/26 10:37:39;;;;;;;13.47;12.97;;;22.50;99.90;;;;;;5031823;28;20255;-67
2023/08/26 10:40:08;;;;;;;13.67;13.17;;;22.60;99.90;;;;;;5031458;28;20204;-67
2023/08/26 10:42:35;;;;;;;13.53;13.03;;;22.60;99.90;;;;;;5031877;28;20208;-67
2023/08/26 10:45:13;;;;;;;12.80;12.40;;;22.60;99.90;;;;;;5031969;28;20224;-67
2023/08/26 10:47:44;;;;;;;13.83;13.33;;;22.60;99.90;;;;;;5032360;28;20205;-66
2023/08/26 10:50:19;;;;;;;13.77;13.27;;;22.40;99.90;;;;;;5031901;28;20205;-68
2023/08/26 10:52:46;;;;;;;13.63;13.13;;;22.30;99.90;;;;;;5033290;28;20207;-66
2023/08/26 10:55:19;;;;;;;13.32;12.90;;;22.40;99.90;;;;;;5031754;28;20239;-68
2023/08/26 10:58:09;;;;;;;14.13;13.63;;;22.50;99.90;;;;;;5031040;28;20320;-67
2023/08/26 11:00:40;;;;;;;13.65;13.15;;;22.50;99.90;;;;;;5030137;28;20258;-67
2023/08/26 11:03:09;;;;;;;13.10;12.70;;;22.50;99.90;;;;;;5031346;28;20760;-67
2023/08/26 11:05:37;;;;;;;14.57;14.07;;;22.40;99.90;;;;;;5030291;28;20240;-66
2023/08/26 11:08:06;;;;;;;13.90;13.40;;;22.30;99.90;;;;;;5030076;28;20216;-67
2023/08/26 11:10:34;;;;;;;13.97;13.47;;;22.30;99.90;;;;;;5029547;28;20230;-66
2023/08/26 11:13:01;;;;;;;13.90;13.40;;;22.20;99.90;;;;;;5030436;28;20215;-68
2023/08/26 11:15:32;;;;;;;12.60;12.20;;;22.30;99.90;;;;;;5030202;28;20229;-67
2023/08/26 11:18:00;;;;;;;12.07;11.68;;;22.10;99.90;;;;;;5030238;28;20220;-68
2023/08/26 11:20:29;;;;;;;12.93;12.53;;;21.90;99.90;;;;;;5028361;28;20206;-66
2023/08/26 11:22:55;;;;;;;13.07;12.68;;;21.80;99.90;;;;;;5032423;28;20243;-67
2023/08/26 11:25:23;;;;;;;12.57;12.17;;;21.90;99.90;;;;;;5034871;28;20220;-67
2023/08/26 11:27:52;;;;;;;12.90;12.50;;;21.90;99.90;;;;;;5038845;28;20232;-67
2023/08/26 11:30:19;;;;;;;11.60;11.20;;;21.80;99.90;;;;;;5032857;28;20222;-67
2023/08/26 11:32:49;;;;;;;12.07;11.67;;;21.80;99.90;;;;;;5031318;28;20219;-68
2023/08/26 11:35:18;;;;;;;13.10;12.60;;;21.80;99.90;;;;;;5028411;28;20344;-67
2023/08/26 11:37:48;;;;;;;12.17;11.70;;;21.70;99.90;;;;;;5020086;28;20213;-66
2023/08/26 11:40:15;;;;;;;12.80;12.30;;;21.60;99.90;;;;;;5011003;28;20217;-65
2023/08/26 11:42:42;;;;;;;12.73;12.33;;;21.50;99.90;;;;;;5011507;28;20216;-65
2023/08/26 11:45:10;;;;;;;11.67;11.27;;;21.40;99.90;;;;;;5013000;28;20237;-66
2023/08/26 11:47:37;;;;;;;10.93;10.53;;;21.30;99.90;;;;;;5010840;28;20251;-67
2023/08/26 11:50:04;;;;;;;11.50;11.10;;;21.30;99.90;;;;;;5010853;28;20224;-66
2023/08/26 11:52:37;;;;;;;11.97;11.57;;;21.30;99.90;;;;;;5012130;28;20201;-66
2023/08/26 11:55:05;;;;;;;11.20;10.80;;;21.30;99.90;;;;;;5012572;28;20260;-66
2023/08/26 11:57:35;;;;;;;11.20;10.80;;;21.40;99.90;;;;;;5009863;28;20251;-67
2023/08/26 12:00:10;;;;;;;11.27;10.87;;;21.30;99.90;;;;;;5010228;28;20205;-67
2023/08/26 12:02:37;;;;;;;10.95;10.55;;;21.20;99.90;;;;;;5010231;28;20291;-65
2023/08/26 12:05:05;;;;;;;11.80;11.40;;;21.20;99.90;;;;;;5010685;28;20217;-65
2023/08/26 12:07:32;;;;;;;11.10;10.70;;;21.20;99.90;;;;;;5009524;28;20217;-65
2023/08/26 12:10:09;;;;;;;11.70;11.30;;;21.30;99.90;;;;;;5013116;28;20701;-67
2023/08/26 12:12:36;;;;;;;10.93;10.57;;;21.40;99.90;;;;;;5017053;28;20220;-66
2023/08/26 12:15:08;;;;;;;12.37;11.93;;;21.50;99.90;;;;;;5017887;28;20237;-66
2023/08/26 12:17:43;;;;;;;11.83;11.43;;;21.50;99.90;;;;;;5016849;28;20267;-66
2023/08/26 12:20:23;;;;;;;12.90;12.40;;;21.50;99.90;;;;;;5015766;28;20243;-67
2023/08/26 12:22:51;;;;;;;12.77;12.37;;;21.50;99.90;;;;;;5016186;28;20216;-69
2023/08/26 12:25:23;;;;;;;12.43;12.03;;;21.40;99.90;;;;;;5016406;28;20221;-67
2023/08/26 12:27:50;;;;;;;12.60;12.20;;;21.40;99.90;;;;;;5017589;28;20642;-67
2023/08/26 12:30:19;;;;;;;12.80;12.40;;;21.30;99.90;;;;;;5015404;28;20940;-66
2023/08/26 12:32:46;;;;;;;12.60;12.10;;;21.30;99.90;;;;;;5016031;28;20229;-66